createdAt,value
2023-05-09T00:00:57.035Z,87.38
2023-05-09T00:01:56.993Z,87.29
2023-05-09T00:02:56.990Z,87.29
2023-05-09T00:03:56.956Z,87.79
2023-05-09T00:04:56.948Z,88.65
2023-05-09T00:05:56.939Z,88.55
2023-05-09T00:06:56.954Z,88.75
2023-05-09T00:07:56.895Z,88.34
2023-05-09T00:08:56.901Z,89.10
2023-05-09T00:09:56.897Z,90.32
2023-05-09T00:10:56.881Z,91.12
2023-05-09T00:11:56.903Z,91.74
2023-05-09T00:12:57.022Z,92.65
2023-05-09T00:13:56.851Z,93.21
2023-05-09T00:14:56.887Z,93.92
2023-05-09T00:15:56.858Z,93.67
2023-05-09T00:16:56.928Z,93.71
2023-05-09T00:17:56.891Z,94.74
2023-05-09T00:18:56.839Z,94.49
2023-05-09T00:19:56.840Z,93.71
2023-05-09T00:20:56.822Z,93.92
2023-05-09T00:21:56.830Z,93.67
2023-05-09T00:22:56.799Z,93.57
2023-05-09T00:23:56.777Z,92.71
2023-05-09T00:24:56.791Z,92.05
2023-05-09T00:25:56.791Z,91.35
2023-05-09T00:26:56.761Z,90.28
2023-05-09T00:27:56.762Z,89.47
2023-05-09T00:28:56.850Z,89.26
2023-05-09T00:29:56.760Z,88.18
2023-05-09T00:30:56.771Z,88.90
2023-05-09T00:31:56.767Z,89.10
2023-05-09T00:32:56.789Z,89.00
2023-05-09T00:33:56.747Z,88.96
2023-05-09T00:34:56.718Z,88.96
2023-05-09T00:35:56.727Z,88.34
2023-05-09T00:36:56.686Z,87.73
2023-05-09T00:37:56.702Z,87.08
2023-05-09T00:38:56.702Z,86.98
2023-05-09T00:39:56.691Z,87.08
2023-05-09T00:40:56.673Z,86.47
2023-05-09T00:41:56.672Z,86.63
2023-05-09T00:42:56.672Z,86.16
2023-05-09T00:43:56.667Z,86.13
2023-05-09T00:44:56.694Z,86.43
2023-05-09T00:45:56.667Z,86.13
2023-05-09T00:46:56.614Z,86.02
2023-05-09T00:47:56.716Z,85.72
2023-05-09T00:48:56.612Z,84.70
2023-05-09T00:49:56.601Z,84.97
2023-05-09T00:50:56.621Z,84.86
2023-05-09T00:51:56.600Z,84.56
2023-05-09T00:52:56.620Z,84.90
2023-05-09T00:53:56.671Z,84.59
2023-05-09T00:54:56.576Z,84.84
2023-05-09T00:55:56.575Z,85.86
2023-05-09T00:56:56.534Z,85.82
2023-05-09T00:57:56.542Z,85.86
2023-05-09T00:58:56.562Z,85.96
2023-05-09T00:59:56.553Z,85.96
2023-05-09T01:00:56.691Z,85.92
2023-05-09T01:01:56.493Z,85.86
2023-05-09T01:02:56.643Z,85.96
2023-05-09T01:03:56.508Z,85.69
2023-05-09T01:04:56.483Z,86.41
2023-05-09T01:05:56.510Z,87.26
2023-05-09T01:06:56.479Z,88.32
2023-05-09T01:07:56.452Z,88.98
2023-05-09T01:08:56.467Z,89.84
2023-05-09T01:09:56.497Z,90.45
2023-05-09T01:10:56.433Z,90.41
2023-05-09T01:11:56.432Z,90.41
2023-05-09T01:12:56.455Z,89.55
2023-05-09T01:13:56.407Z,89.25
2023-05-09T01:14:56.452Z,88.08
2023-05-09T01:15:56.438Z,88.18
2023-05-09T01:16:56.479Z,87.98
2023-05-09T01:17:56.466Z,87.77
2023-05-09T01:18:56.408Z,87.67
2023-05-09T01:19:56.409Z,86.61
2023-05-09T01:20:56.359Z,87.12
2023-05-09T01:21:56.350Z,87.02
2023-05-09T01:22:56.349Z,87.02
2023-05-09T01:23:56.357Z,87.02
2023-05-09T01:24:56.379Z,87.23
2023-05-09T01:25:56.321Z,86.82
2023-05-09T01:26:56.332Z,86.21
2023-05-09T01:27:56.304Z,86.47
2023-05-09T01:28:56.320Z,86.27
2023-05-09T01:29:56.314Z,86.06
2023-05-09T01:30:56.452Z,85.35
2023-05-09T01:31:56.282Z,85.55
2023-05-09T01:32:56.419Z,84.64
2023-05-09T01:33:56.282Z,84.74
2023-05-09T01:34:56.257Z,85.14
2023-05-09T01:35:56.262Z,85.25
2023-05-09T01:36:56.253Z,84.90
2023-05-09T01:37:56.239Z,84.64
2023-05-09T01:38:56.283Z,84.92
2023-05-09T01:39:56.214Z,87.10
2023-05-09T01:40:56.214Z,87.41
2023-05-09T01:41:56.207Z,88.22
2023-05-09T01:42:56.198Z,88.32
2023-05-09T01:43:56.282Z,88.12
2023-05-09T01:44:56.159Z,88.12
2023-05-09T01:45:56.169Z,88.49
2023-05-09T01:46:56.215Z,88.18
2023-05-09T01:47:57.175Z,87.98
2023-05-09T01:48:56.218Z,88.14
2023-05-09T01:49:56.144Z,87.23
2023-05-09T01:50:56.156Z,86.92
2023-05-09T01:51:56.127Z,87.12
2023-05-09T01:52:56.114Z,87.08
2023-05-09T01:53:56.119Z,86.88
2023-05-09T01:54:56.096Z,86.30
2023-05-09T01:55:56.119Z,87.43
2023-05-09T01:56:56.123Z,88.12
2023-05-09T01:57:56.075Z,88.88
2023-05-09T01:58:56.099Z,89.59
2023-05-09T01:59:56.106Z,90.16
2023-05-09T02:00:56.119Z,89.75
2023-05-09T02:01:56.094Z,90.61
2023-05-09T02:02:56.210Z,90.57
2023-05-09T02:03:56.040Z,89.75
2023-05-09T02:04:56.121Z,89.00
2023-05-09T02:05:56.026Z,89.30
2023-05-09T02:06:56.024Z,89.10
2023-05-09T02:07:56.040Z,88.69
2023-05-09T02:08:56.076Z,88.49
2023-05-09T02:09:55.975Z,88.08
2023-05-09T02:10:55.999Z,87.67
2023-05-09T02:11:55.968Z,87.57
2023-05-09T02:12:56.023Z,87.57
2023-05-09T02:13:55.949Z,87.53
2023-05-09T02:14:55.923Z,87.23
2023-05-09T02:15:55.965Z,87.63
2023-05-09T02:16:55.945Z,87.02
2023-05-09T02:17:55.998Z,87.12
2023-05-09T02:18:55.929Z,86.92
2023-05-09T02:19:55.891Z,86.98
2023-05-09T02:20:55.999Z,87.08
2023-05-09T02:21:55.924Z,86.57
2023-05-09T02:22:55.872Z,86.77
2023-05-09T02:23:55.860Z,86.30
2023-05-09T02:24:55.870Z,86.88
2023-05-09T02:25:55.866Z,86.57
2023-05-09T02:26:55.900Z,86.16
2023-05-09T02:27:55.837Z,86.57
2023-05-09T02:28:55.865Z,86.92
2023-05-09T02:29:55.883Z,87.08
2023-05-09T02:30:55.801Z,87.12
2023-05-09T02:31:55.888Z,87.53
2023-05-09T02:32:55.846Z,87.23
2023-05-09T02:33:55.816Z,87.32
2023-05-09T02:34:55.914Z,87.53
2023-05-09T02:35:55.810Z,87.32
2023-05-09T02:36:55.852Z,88.04
2023-05-09T02:37:55.774Z,88.14
2023-05-09T02:38:55.744Z,88.04
2023-05-09T02:39:55.792Z,88.92
2023-05-09T02:40:55.757Z,88.04
2023-05-09T02:41:55.740Z,88.65
2023-05-09T02:42:55.771Z,88.18
2023-05-09T02:43:55.748Z,89.20
2023-05-09T02:44:55.723Z,89.00
2023-05-09T02:45:55.769Z,88.34
2023-05-09T02:46:55.706Z,88.85
2023-05-09T02:47:55.987Z,88.90
2023-05-09T02:48:55.780Z,89.00
2023-05-09T02:49:55.678Z,88.85
2023-05-09T02:50:55.737Z,88.14
2023-05-09T02:51:55.681Z,88.65
2023-05-09T02:52:55.774Z,88.90
2023-05-09T02:53:55.651Z,88.90
2023-05-09T02:54:55.667Z,89.96
2023-05-09T02:55:55.667Z,90.47
2023-05-09T02:56:55.631Z,90.57
2023-05-09T02:58:09.385Z,90.98
2023-05-09T02:58:57.608Z,90.73
2023-05-09T02:59:55.601Z,89.81
2023-05-09T03:00:55.628Z,89.61
2023-05-09T03:01:55.687Z,88.85
2023-05-09T03:02:55.634Z,88.55
2023-05-09T03:03:55.648Z,88.34
2023-05-09T03:04:55.560Z,88.65
2023-05-09T03:05:55.736Z,88.90
2023-05-09T03:06:55.580Z,89.00
2023-05-09T03:07:55.551Z,89.81
2023-05-09T03:08:55.614Z,89.40
2023-05-09T03:09:55.554Z,89.40
2023-05-09T03:10:55.530Z,88.75
2023-05-09T03:11:55.546Z,88.55
2023-05-09T03:12:55.549Z,88.55
2023-05-09T03:13:55.525Z,88.55
2023-05-09T03:14:55.485Z,88.85
2023-05-09T03:15:55.521Z,87.59
2023-05-09T03:16:55.467Z,87.29
2023-05-09T03:17:55.592Z,87.79
2023-05-09T03:18:55.453Z,87.08
2023-05-09T03:19:55.460Z,86.77
2023-05-09T03:20:55.428Z,86.57
2023-05-09T03:21:55.428Z,86.68
2023-05-09T03:22:55.452Z,86.27
2023-05-09T03:23:55.470Z,86.47
2023-05-09T03:24:55.503Z,86.68
2023-05-09T03:25:55.398Z,86.06
2023-05-09T03:26:55.397Z,86.27
2023-05-09T03:27:55.400Z,86.71
2023-05-09T03:28:55.394Z,87.88
2023-05-09T03:29:55.391Z,87.37
2023-05-09T03:30:55.387Z,87.53
2023-05-09T03:31:55.452Z,87.53
2023-05-09T03:32:55.411Z,87.53
2023-05-09T03:33:55.378Z,87.73
2023-05-09T03:34:55.365Z,87.53
2023-05-09T03:35:55.445Z,87.23
2023-05-09T03:36:55.352Z,87.98
2023-05-09T03:37:55.318Z,88.53
2023-05-09T03:38:55.299Z,89.34
2023-05-09T03:39:55.321Z,90.10
2023-05-09T03:40:55.377Z,90.61
2023-05-09T03:41:55.280Z,90.92
2023-05-09T03:42:55.274Z,90.98
2023-05-09T03:43:55.256Z,90.77
2023-05-09T03:44:55.321Z,91.78
2023-05-09T03:45:55.275Z,92.39
2023-05-09T03:46:55.328Z,93.10
2023-05-09T03:47:55.247Z,93.55
2023-05-09T03:48:55.229Z,94.17
2023-05-09T03:49:55.224Z,93.71
2023-05-09T03:50:55.216Z,93.71
2023-05-09T03:51:55.221Z,93.88
2023-05-09T03:52:55.221Z,93.16
2023-05-09T03:53:55.197Z,93.52
2023-05-09T03:54:55.178Z,92.61
2023-05-09T03:55:55.165Z,91.85
2023-05-09T03:56:55.262Z,91.75
2023-05-09T03:57:55.169Z,91.55
2023-05-09T03:58:55.148Z,90.94
2023-05-09T03:59:55.140Z,90.08
2023-05-09T04:00:55.145Z,90.18
2023-05-09T04:01:55.176Z,89.97
2023-05-09T04:02:55.203Z,89.77
2023-05-09T04:03:55.150Z,89.71
2023-05-09T04:04:55.142Z,90.42
2023-05-09T04:05:55.101Z,90.63
2023-05-09T04:06:55.089Z,90.88
2023-05-09T04:07:55.138Z,91.08
2023-05-09T04:08:55.102Z,91.63
2023-05-09T04:09:55.065Z,91.69
2023-05-09T04:10:55.069Z,91.59
2023-05-09T04:11:55.047Z,91.28
2023-05-09T04:12:55.188Z,91.59
2023-05-09T04:13:55.067Z,92.39
2023-05-09T04:14:55.050Z,93.45
2023-05-09T04:15:55.037Z,94.62
2023-05-09T04:16:55.070Z,94.93
2023-05-09T04:17:55.178Z,94.78
2023-05-09T04:18:55.029Z,95.09
2023-05-09T04:19:54.996Z,95.50
2023-05-09T04:20:54.977Z,94.23
2023-05-09T04:21:54.981Z,94.29
2023-05-09T04:22:54.971Z,94.18
2023-05-09T04:23:55.068Z,92.81
2023-05-09T04:24:55.004Z,92.10
2023-05-09T04:25:54.959Z,91.65
2023-05-09T04:26:54.966Z,90.94
2023-05-09T04:27:54.977Z,90.73
2023-05-09T04:28:55.026Z,89.47
2023-05-09T04:29:54.963Z,89.47
2023-05-09T04:30:54.959Z,89.06
2023-05-09T04:31:55.101Z,88.31
2023-05-09T04:32:54.951Z,88.40
2023-05-09T04:33:54.914Z,88.00
2023-05-09T04:34:54.933Z,88.71
2023-05-09T04:35:54.887Z,88.31
2023-05-09T04:36:54.853Z,87.69
2023-05-09T04:37:54.891Z,87.38
2023-05-09T04:38:54.917Z,86.43
2023-05-09T04:39:54.868Z,87.45
2023-05-09T04:40:54.958Z,87.35
2023-05-09T04:41:54.827Z,87.35
2023-05-09T04:42:54.856Z,87.55
2023-05-09T04:43:54.824Z,86.69
2023-05-09T04:44:54.897Z,86.90
2023-05-09T04:45:54.890Z,86.90
2023-05-09T04:46:54.916Z,87.10
2023-05-09T04:47:54.827Z,86.90
2023-05-09T04:48:54.773Z,86.45
2023-05-09T04:49:54.781Z,86.69
2023-05-09T04:50:54.804Z,86.80
2023-05-09T04:51:54.780Z,88.06
2023-05-09T04:52:55.774Z,88.61
2023-05-09T04:53:54.774Z,89.87
2023-05-09T04:54:54.742Z,90.94
2023-05-09T04:55:54.777Z,92.00
2023-05-09T04:57:03.191Z,92.26
2023-05-09T04:57:56.715Z,92.05
2023-05-09T04:58:54.698Z,91.85
2023-05-09T04:59:54.704Z,91.61
2023-05-09T05:00:54.782Z,91.61
2023-05-09T05:01:54.813Z,91.55
2023-05-09T05:02:54.804Z,91.55
2023-05-09T05:03:54.734Z,91.55
2023-05-09T05:05:06.271Z,91.75
2023-05-09T05:05:56.730Z,91.89
2023-05-09T05:06:54.701Z,92.26
2023-05-09T05:07:54.652Z,92.05
2023-05-09T05:08:54.677Z,93.02
2023-05-09T05:09:54.620Z,93.18
2023-05-09T05:10:54.770Z,93.07
2023-05-09T05:12:01.777Z,92.67
2023-05-09T05:12:56.821Z,93.07
2023-05-09T05:13:54.595Z,92.97
2023-05-09T05:14:54.604Z,92.57
2023-05-09T05:15:54.604Z,92.46
2023-05-09T05:16:54.672Z,92.36
2023-05-09T05:17:54.596Z,92.52
2023-05-09T05:18:54.587Z,92.32
2023-05-09T05:19:54.545Z,91.87
2023-05-09T05:20:54.545Z,91.81
2023-05-09T05:21:54.531Z,91.87
2023-05-09T05:22:54.565Z,91.46
2023-05-09T05:23:54.567Z,91.26
2023-05-09T05:24:54.511Z,91.11
2023-05-09T05:25:54.531Z,91.42
2023-05-09T05:26:54.520Z,90.70
2023-05-09T05:27:54.512Z,89.99
2023-05-09T05:28:54.529Z,88.93
2023-05-09T05:29:54.486Z,88.83
2023-05-09T05:30:54.489Z,88.42
2023-05-09T05:31:54.576Z,88.42
2023-05-09T05:32:54.671Z,88.53
2023-05-09T05:33:54.466Z,88.22
2023-05-09T05:34:54.425Z,88.08
2023-05-09T05:35:54.425Z,88.69
2023-05-09T05:36:54.424Z,88.28
2023-05-09T05:37:54.449Z,88.39
2023-05-09T05:38:54.404Z,88.65
2023-05-09T05:39:54.399Z,88.39
2023-05-09T05:40:54.410Z,87.63
2023-05-09T05:41:54.437Z,87.32
2023-05-09T05:42:54.390Z,87.18
2023-05-09T05:43:54.662Z,87.24
2023-05-09T05:44:55.372Z,86.68
2023-05-09T05:45:54.384Z,86.63
2023-05-09T05:46:54.376Z,86.63
2023-05-09T05:47:54.397Z,87.10
2023-05-09T05:48:55.432Z,86.96
2023-05-09T05:49:54.322Z,86.71
2023-05-09T05:50:54.326Z,85.62
2023-05-09T05:51:54.331Z,84.00
2023-05-09T05:52:54.346Z,82.68
2023-05-09T05:53:54.421Z,82.64
2023-05-09T05:54:54.295Z,80.92
2023-05-09T05:55:54.291Z,81.43
2023-05-09T05:56:54.308Z,80.58
2023-05-09T05:57:54.330Z,80.82
2023-05-09T05:58:54.280Z,80.88
2023-05-09T05:59:54.256Z,80.38
2023-05-09T06:00:54.272Z,79.67
2023-05-09T06:01:54.277Z,80.18
2023-05-09T06:02:54.256Z,80.82
2023-05-09T06:03:54.336Z,81.97
2023-05-09T06:04:55.910Z,83.26
2023-05-09T06:05:54.195Z,85.47
2023-05-09T06:06:54.196Z,87.14
2023-05-09T06:07:54.188Z,87.18
2023-05-09T06:08:54.266Z,87.93
2023-05-09T06:09:54.190Z,89.56
2023-05-09T06:10:54.208Z,90.52
2023-05-09T06:11:54.193Z,91.43
2023-05-09T06:12:54.179Z,90.52
2023-05-09T06:13:54.146Z,90.42
2023-05-09T06:14:54.117Z,90.37
2023-05-09T06:15:54.991Z,91.09
2023-05-09T06:16:54.207Z,91.05
2023-05-09T06:17:54.157Z,89.92
2023-05-09T06:18:55.874Z,89.28
2023-05-09T06:19:55.108Z,88.36
2023-05-09T06:20:54.171Z,87.71
2023-05-09T06:21:54.072Z,88.18
2023-05-09T06:22:54.187Z,88.07
2023-05-09T06:24:55.039Z,87.67
2023-05-09T06:25:54.030Z,87.57
2023-05-09T06:26:54.053Z,87.77
2023-05-09T06:27:54.038Z,86.91
2023-05-09T06:28:54.014Z,86.82
2023-05-09T06:29:54.033Z,86.25
2023-05-09T06:30:54.010Z,87.46
2023-05-09T06:31:54.045Z,88.42
2023-05-09T06:32:54.059Z,88.48
2023-05-09T06:33:53.982Z,87.87
2023-05-09T06:34:53.973Z,87.81
2023-05-09T06:35:54.010Z,88.42
2023-05-09T06:36:54.092Z,88.62
2023-05-09T06:37:53.977Z,88.58
2023-05-09T06:38:54.033Z,89.19
2023-05-09T06:39:53.977Z,87.02
2023-05-09T06:40:53.971Z,86.61
2023-05-09T06:41:53.921Z,85.50
2023-05-09T06:42:53.962Z,85.80
2023-05-09T06:43:53.942Z,84.58
2023-05-09T06:44:53.989Z,83.37
2023-05-09T06:45:53.924Z,83.53
2023-05-09T06:46:53.889Z,82.66
2023-05-09T06:47:53.911Z,83.24
2023-05-09T06:48:53.964Z,85.33
2023-05-09T06:49:53.901Z,86.35
2023-05-09T06:50:53.857Z,84.55
2023-05-09T06:51:53.950Z,84.04
2023-05-09T06:52:53.924Z,83.94
2023-05-09T06:53:53.844Z,82.28
2023-05-09T06:54:53.858Z,82.54
2023-05-09T06:55:53.921Z,82.34
2023-05-09T06:56:53.839Z,81.73
2023-05-09T06:57:53.821Z,81.12
2023-05-09T06:58:53.812Z,80.41
2023-05-09T06:59:53.926Z,83.31
2023-05-09T07:00:53.799Z,82.06
2023-05-09T07:01:53.844Z,80.40
2023-05-09T07:02:53.811Z,78.30
2023-05-09T07:03:53.785Z,78.17
2023-05-09T07:04:53.794Z,79.50
2023-05-09T07:05:53.751Z,78.06
2023-05-09T07:06:54.777Z,78.02
2023-05-09T07:07:53.734Z,75.73
2023-05-09T07:08:53.857Z,74.38
2023-05-09T07:10:00.649Z,71.33
2023-05-09T07:10:54.719Z,71.40
2023-05-09T07:11:53.748Z,71.40
2023-05-09T07:12:53.797Z,71.67
2023-05-09T07:13:53.705Z,70.36
2023-05-09T07:14:53.698Z,71.06
2023-05-09T07:15:53.716Z,70.66
2023-05-09T07:16:55.243Z,70.06
2023-05-09T07:17:54.838Z,68.78
2023-05-09T07:18:53.729Z,69.09
2023-05-09T07:19:53.690Z,69.96
2023-05-09T07:20:53.685Z,69.49
2023-05-09T07:21:53.685Z,69.89
2023-05-09T07:22:53.695Z,69.38
2023-05-09T07:23:53.694Z,69.05
2023-05-09T07:24:53.723Z,69.45
2023-05-09T07:25:53.633Z,70.89
2023-05-09T07:26:53.633Z,72.20
2023-05-09T07:27:53.627Z,71.84
2023-05-09T07:28:53.665Z,71.53
2023-05-09T07:29:53.612Z,71.60
2023-05-09T07:30:53.718Z,72.58
2023-05-09T07:31:53.706Z,72.17
2023-05-09T07:32:53.653Z,71.44
2023-05-09T07:33:53.616Z,69.09
2023-05-09T07:34:53.597Z,70.19
2023-05-09T07:35:53.574Z,68.08
2023-05-09T07:36:53.561Z,68.75
2023-05-09T07:37:53.546Z,68.65
2023-05-09T07:38:53.567Z,69.96
2023-05-09T07:39:53.559Z,67.94
2023-05-09T07:40:53.603Z,67.07
2023-05-09T07:41:53.521Z,65.82
2023-05-09T07:42:53.521Z,69.55
2023-05-09T07:43:53.534Z,68.85
2023-05-09T07:44:53.637Z,69.65
2023-05-09T07:45:53.567Z,67.74
2023-05-09T07:46:53.492Z,66.73
2023-05-09T07:47:53.513Z,67.13
2023-05-09T07:48:53.518Z,68.57
2023-05-09T07:49:53.591Z,67.87
2023-05-09T07:50:53.475Z,67.94
2023-05-09T07:51:53.466Z,67.87
2023-05-09T07:52:54.463Z,68.77
2023-05-09T07:53:53.469Z,68.68
2023-05-09T07:54:53.718Z,67.33
2023-05-09T07:55:53.446Z,67.54
2023-05-09T07:56:53.516Z,67.30
2023-05-09T07:57:53.489Z,64.98
2023-05-09T07:58:55.598Z,65.83
2023-05-09T07:59:54.457Z,65.80
2023-05-09T08:00:53.400Z,63.59
2023-05-09T08:01:53.490Z,66.33
2023-05-09T08:02:53.483Z,67.57
2023-05-09T08:03:53.442Z,66.06
2023-05-09T08:04:53.401Z,69.62
2023-05-09T08:05:53.377Z,67.40
2023-05-09T08:06:53.729Z,66.87
2023-05-09T08:07:53.361Z,66.16
2023-05-09T08:08:53.358Z,66.16
2023-05-09T08:09:53.362Z,68.78
2023-05-09T08:10:53.384Z,67.44
2023-05-09T08:11:53.410Z,67.54
2023-05-09T08:12:53.450Z,67.34
2023-05-09T08:13:53.334Z,66.97
2023-05-09T08:14:53.338Z,66.97
2023-05-09T08:15:53.368Z,67.47
2023-05-09T08:16:53.327Z,67.47
2023-05-09T08:17:53.384Z,68.91
2023-05-09T08:18:53.313Z,68.91
2023-05-09T08:19:53.309Z,69.72
2023-05-09T08:20:53.303Z,67.80
2023-05-09T08:21:53.323Z,67.93
2023-05-09T08:22:53.306Z,71.77
2023-05-09T08:23:53.311Z,69.52
2023-05-09T08:24:53.265Z,69.59
2023-05-09T08:25:53.282Z,68.88
2023-05-09T08:26:53.280Z,70.06
2023-05-09T08:27:53.282Z,68.71
2023-05-09T08:28:53.330Z,68.18
2023-05-09T08:29:53.252Z,65.80
2023-05-09T08:30:53.226Z,65.94
2023-05-09T08:31:53.400Z,65.80
2023-05-09T08:32:53.268Z,64.17
2023-05-09T08:33:53.388Z,67.92
2023-05-09T08:34:53.213Z,63.28
2023-05-09T08:35:53.203Z,60.27
2023-05-09T08:36:53.263Z,60.94
2023-05-09T08:37:53.196Z,60.33
2023-05-09T08:38:53.477Z,61.04
2023-05-09T08:39:53.196Z,59.74
2023-05-09T08:40:53.175Z,60.53
2023-05-09T08:41:53.162Z,64.07
2023-05-09T08:42:53.168Z,60.97
2023-05-09T08:43:53.154Z,61.97
2023-05-09T08:44:53.244Z,62.20
2023-05-09T08:45:53.183Z,62.10
2023-05-09T08:46:53.158Z,62.27
2023-05-09T08:47:53.181Z,62.37
2023-05-09T08:48:53.112Z,62.04
2023-05-09T08:49:53.145Z,62.14
2023-05-09T08:50:53.113Z,63.64
2023-05-09T08:51:53.112Z,62.10
2023-05-09T08:52:53.111Z,64.47
2023-05-09T08:53:53.123Z,65.97
2023-05-09T08:54:53.110Z,64.73
2023-05-09T08:55:53.140Z,65.67
2023-05-09T08:56:53.090Z,67.14
2023-05-09T08:57:53.095Z,66.00
2023-05-09T08:58:53.121Z,63.73
2023-05-09T08:59:53.107Z,64.77
2023-05-09T09:00:53.139Z,65.41
2023-05-09T09:01:53.050Z,65.41
2023-05-09T09:02:53.129Z,64.00
2023-05-09T09:03:53.044Z,63.90
2023-05-09T09:04:53.071Z,67.35
2023-05-09T09:05:53.107Z,67.45
2023-05-09T09:06:53.012Z,64.47
2023-05-09T09:07:53.015Z,64.84
2023-05-09T09:08:53.013Z,64.91
2023-05-09T09:09:52.992Z,62.93
2023-05-09T09:10:53.027Z,64.61
2023-05-09T09:11:52.980Z,63.13
2023-05-09T09:12:53.022Z,64.91
2023-05-09T09:13:53.068Z,62.20
2023-05-09T09:14:53.107Z,63.53
2023-05-09T09:15:52.943Z,64.61
2023-05-09T09:16:53.143Z,63.31
2023-05-09T09:17:52.993Z,64.64
2023-05-09T09:18:52.951Z,65.91
2023-05-09T09:19:52.937Z,64.07
2023-05-09T09:20:52.930Z,62.26
2023-05-09T09:21:52.940Z,64.64
2023-05-09T09:22:52.918Z,64.91
2023-05-09T09:23:52.928Z,64.18
2023-05-09T09:24:52.980Z,62.04
2023-05-09T09:25:52.895Z,62.80
2023-05-09T09:26:52.942Z,64.74
2023-05-09T09:27:52.905Z,63.29
2023-05-09T09:28:52.878Z,64.50
2023-05-09T09:29:52.912Z,64.07
2023-05-09T09:30:52.908Z,64.51
2023-05-09T09:31:52.930Z,66.85
2023-05-09T09:32:52.998Z,64.21
2023-05-09T09:33:52.836Z,64.71
2023-05-09T09:34:52.903Z,64.61
2023-05-09T09:35:52.923Z,62.33
2023-05-09T09:36:52.871Z,62.20
2023-05-09T09:37:52.806Z,60.80
2023-05-09T09:38:52.838Z,63.67
2023-05-09T09:39:52.805Z,63.03
2023-05-09T09:40:52.806Z,62.50
2023-05-09T09:41:52.787Z,62.50
2023-05-09T09:42:52.832Z,63.10
2023-05-09T09:43:52.868Z,63.10
2023-05-09T09:44:52.773Z,62.76
2023-05-09T09:45:52.849Z,63.84
2023-05-09T09:46:52.762Z,63.98
2023-05-09T09:47:52.795Z,65.95
2023-05-09T09:48:52.894Z,62.67
2023-05-09T09:49:52.752Z,61.10
2023-05-09T09:50:52.723Z,62.67
2023-05-09T09:51:52.712Z,62.24
2023-05-09T09:52:52.713Z,62.21
2023-05-09T09:53:52.763Z,62.68
2023-05-09T09:54:52.781Z,61.02
2023-05-09T09:55:52.724Z,62.79
2023-05-09T09:56:52.820Z,60.99
2023-05-09T09:57:52.692Z,58.97
2023-05-09T09:58:53.691Z,57.64
2023-05-09T09:59:52.706Z,58.81
2023-05-09T10:00:52.719Z,57.71
2023-05-09T10:01:52.673Z,57.54
2023-05-09T10:02:52.759Z,55.74
2023-05-09T10:03:52.725Z,56.34
2023-05-09T10:04:52.791Z,57.37
2023-05-09T10:05:52.683Z,55.44
2023-05-09T10:06:52.663Z,56.46
2023-05-09T10:07:52.637Z,58.99
2023-05-09T10:08:52.627Z,61.02
2023-05-09T10:09:52.635Z,61.09
2023-05-09T10:10:52.625Z,60.49
2023-05-09T10:11:52.636Z,60.66
2023-05-09T10:12:52.619Z,60.39
2023-05-09T10:13:52.585Z,57.89
2023-05-09T10:14:52.596Z,58.89
2023-05-09T10:15:53.858Z,56.89
2023-05-09T10:16:53.767Z,57.69
2023-05-09T10:17:52.778Z,58.00
2023-05-09T10:18:52.662Z,58.59
2023-05-09T10:19:52.557Z,57.09
2023-05-09T10:20:52.699Z,57.72
2023-05-09T10:21:52.564Z,60.15
2023-05-09T10:22:52.536Z,59.25
2023-05-09T10:23:52.554Z,58.35
2023-05-09T10:24:52.504Z,58.95
2023-05-09T10:25:52.521Z,57.82
2023-05-09T10:26:52.549Z,57.82
2023-05-09T10:27:52.665Z,58.32
2023-05-09T10:28:52.491Z,58.00
2023-05-09T10:29:52.493Z,59.62
2023-05-09T10:30:52.500Z,58.12
2023-05-09T10:31:52.520Z,58.00
2023-05-09T10:32:52.539Z,57.62
2023-05-09T10:33:52.444Z,58.82
2023-05-09T10:34:52.455Z,58.99
2023-05-09T10:35:52.468Z,58.49
2023-05-09T10:36:52.501Z,58.29
2023-05-09T10:37:52.452Z,60.32
2023-05-09T10:38:52.471Z,58.19
2023-05-09T10:39:52.436Z,58.89
2023-05-09T10:40:52.397Z,59.39
2023-05-09T10:41:52.403Z,59.79
2023-05-09T10:42:52.412Z,58.97
2023-05-09T10:43:52.389Z,58.59
2023-05-09T10:44:52.419Z,60.92
2023-05-09T10:45:52.423Z,60.15
2023-05-09T10:46:52.395Z,61.58
2023-05-09T10:47:52.484Z,60.24
2023-05-09T10:48:52.363Z,63.31
2023-05-09T10:49:52.363Z,61.11
2023-05-09T10:50:52.368Z,61.38
2023-05-09T10:51:52.322Z,61.28
2023-05-09T10:52:52.439Z,60.41
2023-05-09T10:53:52.381Z,59.20
2023-05-09T10:54:52.384Z,59.20
2023-05-09T10:55:52.402Z,58.94
2023-05-09T10:56:52.291Z,60.53
2023-05-09T10:57:52.333Z,58.83
2023-05-09T10:58:52.318Z,60.33
2023-05-09T10:59:52.326Z,59.44
2023-05-09T11:00:55.183Z,58.03
2023-05-09T11:01:53.388Z,62.14
2023-05-09T11:02:52.340Z,60.53
2023-05-09T11:03:52.368Z,60.44
2023-05-09T11:04:52.307Z,61.77
2023-05-09T11:05:52.356Z,62.87
2023-05-09T11:06:52.454Z,61.74
2023-05-09T11:07:52.226Z,61.94
2023-05-09T11:08:52.371Z,60.84
2023-05-09T11:09:52.870Z,61.11
2023-05-09T11:10:52.216Z,62.94
2023-05-09T11:11:52.208Z,61.91
2023-05-09T11:12:52.203Z,60.28
2023-05-09T11:13:52.246Z,62.38
2023-05-09T11:14:52.208Z,58.87
2023-05-09T11:15:52.195Z,61.25
2023-05-09T11:16:52.318Z,59.52
2023-05-09T11:17:52.218Z,57.69
2023-05-09T11:18:52.163Z,56.57
2023-05-09T11:19:52.160Z,55.79
2023-05-09T11:20:52.227Z,58.52
2023-05-09T11:21:52.135Z,59.15
2023-05-09T11:22:52.176Z,59.41
2023-05-09T11:23:54.487Z,58.98
2023-05-09T11:24:53.303Z,57.48
2023-05-09T11:25:52.151Z,58.20
2023-05-09T11:26:52.101Z,57.15
2023-05-09T11:27:52.165Z,56.65
2023-05-09T11:28:52.107Z,60.95
2023-05-09T11:29:52.099Z,59.85
2023-05-09T11:30:52.119Z,57.82
2023-05-09T11:31:52.096Z,57.42
2023-05-09T11:32:52.130Z,58.98
2023-05-09T11:33:52.065Z,58.98
2023-05-09T11:34:52.042Z,59.58
2023-05-09T11:35:52.092Z,59.41
2023-05-09T11:36:52.043Z,59.31
2023-05-09T11:37:52.056Z,58.98
2023-05-09T11:38:52.051Z,58.55
2023-05-09T11:39:52.009Z,57.42
2023-05-09T11:40:52.095Z,56.49
2023-05-09T11:41:51.997Z,58.12
2023-05-09T11:42:51.998Z,59.65
2023-05-09T11:43:52.009Z,60.25
2023-05-09T11:44:51.985Z,56.72
2023-05-09T11:45:52.000Z,58.02
2023-05-09T11:46:52.012Z,56.79
2023-05-09T11:47:52.967Z,57.29
2023-05-09T11:48:51.975Z,59.17
2023-05-09T11:49:51.987Z,55.74
2023-05-09T11:50:51.937Z,54.22
2023-05-09T11:51:51.948Z,54.29
2023-05-09T11:52:51.996Z,55.39
2023-05-09T11:53:51.932Z,57.17
2023-05-09T11:54:51.969Z,56.34
2023-05-09T11:55:51.912Z,53.94
2023-05-09T11:56:52.016Z,52.64
2023-05-09T11:57:51.928Z,54.17
2023-05-09T11:58:51.940Z,55.89
2023-05-09T11:59:51.894Z,57.37
2023-05-09T12:00:51.900Z,56.70
2023-05-09T12:01:51.865Z,56.42
2023-05-09T12:02:51.934Z,56.70
2023-05-09T12:03:51.992Z,54.99
2023-05-09T12:04:51.840Z,58.19
2023-05-09T12:05:51.861Z,57.92
2023-05-09T12:06:51.827Z,57.92
2023-05-09T12:07:51.867Z,57.29
2023-05-09T12:08:51.994Z,57.50
2023-05-09T12:09:51.827Z,55.65
2023-05-09T12:10:51.811Z,57.35
2023-05-09T12:11:51.808Z,58.25
2023-05-09T12:12:51.905Z,57.95
2023-05-09T12:13:51.784Z,59.08
2023-05-09T12:14:51.960Z,59.18
2023-05-09T12:15:51.878Z,58.50
2023-05-09T12:16:51.776Z,58.07
2023-05-09T12:17:52.168Z,59.85
2023-05-09T12:18:52.798Z,61.29
2023-05-09T12:19:51.778Z,60.79
2023-05-09T12:20:51.727Z,56.99
2023-05-09T12:21:51.719Z,58.09
2023-05-09T12:22:51.709Z,56.77
2023-05-09T12:23:53.200Z,58.89
2023-05-09T12:24:52.723Z,57.32
2023-05-09T12:25:51.679Z,56.39
2023-05-09T12:26:51.676Z,59.30
2023-05-09T12:27:51.668Z,59.23
2023-05-09T12:28:52.744Z,60.68
2023-05-09T12:29:54.348Z,57.18
2023-05-09T12:30:51.658Z,55.36
2023-05-09T12:31:51.832Z,55.49
2023-05-09T12:32:51.704Z,56.31
2023-05-09T12:33:51.639Z,58.73
2023-05-09T12:34:51.714Z,58.89
2023-05-09T12:35:52.894Z,58.22
2023-05-09T12:36:51.728Z,57.15
2023-05-09T12:37:51.617Z,57.75
2023-05-09T12:38:51.637Z,58.65
2023-05-09T12:39:51.620Z,60.49
2023-05-09T12:40:51.587Z,58.99
2023-05-09T12:42:01.125Z,57.26
2023-05-09T12:42:53.612Z,56.44
2023-05-09T12:43:51.594Z,57.64
2023-05-09T12:44:51.676Z,55.41
2023-05-09T12:45:51.581Z,56.09
2023-05-09T12:46:51.597Z,55.58
2023-05-09T12:47:51.570Z,54.19
2023-05-09T12:48:51.542Z,52.97
2023-05-09T12:49:51.531Z,54.36
2023-05-09T12:50:51.534Z,57.68
2023-05-09T12:51:51.576Z,53.99
2023-05-09T12:53:02.065Z,53.19
2023-05-09T12:53:53.505Z,53.86